createdAt,value
2016-11-28T00:00:55.845Z,3.19
2016-11-28T00:01:55.115Z,3.25
2016-11-28T00:02:54.948Z,3.17
2016-11-28T00:03:55.361Z,3.1
2016-11-28T00:04:55.214Z,3.15
2016-11-28T00:05:55.190Z,3.17
2016-11-28T00:06:55.545Z,3.1
2016-11-28T00:07:55.210Z,3.13
2016-11-28T00:08:55.098Z,3.17
2016-11-28T00:09:56.245Z,3.16
2016-11-28T00:10:55.503Z,3.13
2016-11-28T00:11:54.840Z,3.13
2016-11-28T00:12:54.861Z,3.1
2016-11-28T00:13:55.585Z,3.1
2016-11-28T00:14:55.644Z,3.12
2016-11-28T00:15:54.923Z,3.07
2016-11-28T00:16:55.263Z,3.08
2016-11-28T00:17:54.544Z,3.07
2016-11-28T00:18:54.737Z,3.1
2016-11-28T00:19:54.677Z,3.01
2016-11-28T00:20:55.360Z,3.07
2016-11-28T00:21:55.134Z,2.92
2016-11-28T00:22:54.892Z,2.97
2016-11-28T00:23:55.408Z,2.97
2016-11-28T00:24:55.069Z,2.99
2016-11-28T00:25:55.004Z,2.97
2016-11-28T00:26:54.707Z,3.13
2016-11-28T00:27:54.799Z,2.98
2016-11-28T00:28:54.738Z,2.99
2016-11-28T00:29:54.667Z,2.95
2016-11-28T00:30:54.750Z,3.01
2016-11-28T00:31:54.943Z,2.97
2016-11-28T00:32:54.694Z,2.97
2016-11-28T00:33:55.301Z,2.95
2016-11-28T00:34:54.467Z,2.97
2016-11-28T00:35:54.830Z,2.89
2016-11-28T00:36:54.715Z,2.9
2016-11-28T00:37:55.208Z,2.9
2016-11-28T00:38:55.556Z,2.92
2016-11-28T00:39:55.277Z,2.84
2016-11-28T00:40:55.688Z,2.92
2016-11-28T00:41:55.673Z,2.87
2016-11-28T00:42:54.976Z,2.92
2016-11-28T00:43:55.067Z,2.94
2016-11-28T00:44:54.678Z,2.8
2016-11-28T00:45:55.037Z,2.74
2016-11-28T00:46:55.155Z,2.77
2016-11-28T00:47:54.615Z,2.77
2016-11-28T00:48:55.402Z,2.79
2016-11-28T00:49:55.078Z,2.77
2016-11-28T00:50:55.257Z,2.76
2016-11-28T00:51:54.857Z,2.79
2016-11-28T00:52:54.981Z,2.73
2016-11-28T00:53:54.788Z,2.71
2016-11-28T00:54:54.701Z,2.68
2016-11-28T00:55:54.962Z,2.68
2016-11-28T00:56:55.025Z,2.68
2016-11-28T00:57:55.229Z,2.66
2016-11-28T00:58:54.845Z,2.62
2016-11-28T00:59:54.902Z,2.61
2016-11-28T01:00:54.862Z,2.56
2016-11-28T01:01:54.979Z,2.63
2016-11-28T01:02:57.383Z,2.63
2016-11-28T01:03:54.788Z,2.61
2016-11-28T01:04:55.061Z,2.59
2016-11-28T01:05:55.202Z,2.5
2016-11-28T01:06:55.601Z,2.45
2016-11-28T01:07:55.008Z,2.45
2016-11-28T01:08:54.883Z,2.43
2016-11-28T01:09:54.833Z,2.45
2016-11-28T01:10:54.954Z,2.51
2016-11-28T01:11:54.882Z,2.43
2016-11-28T01:12:55.131Z,2.53
2016-11-28T01:13:55.169Z,2.47
2016-11-28T01:14:55.831Z,2.5
2016-11-28T01:15:55.215Z,2.32
2016-11-28T01:16:55.610Z,2.43
2016-11-28T01:17:54.950Z,2.27
2016-11-28T01:18:54.940Z,2.36
2016-11-28T01:19:55.155Z,2.36
2016-11-28T01:20:55.310Z,2.38
2016-11-28T01:21:55.031Z,2.43
2016-11-28T01:22:55.112Z,2.32
2016-11-28T01:23:55.024Z,2.26
2016-11-28T01:24:54.694Z,2.26
2016-11-28T01:25:54.961Z,2.3
2016-11-28T01:26:55.024Z,2.19
2016-11-28T01:27:54.981Z,2.15
2016-11-28T01:28:54.983Z,2.19
2016-11-28T01:29:54.933Z,2.11
2016-11-28T01:30:55.256Z,2.15
2016-11-28T01:31:54.844Z,2.14
2016-11-28T01:32:54.993Z,2.09
2016-11-28T01:33:54.878Z,2.11
2016-11-28T01:34:54.803Z,2.08
2016-11-28T01:35:54.840Z,2.07
2016-11-28T01:36:55.004Z,2.04
2016-11-28T01:37:54.815Z,2.08
2016-11-28T01:38:54.867Z,2.04
2016-11-28T01:39:55.188Z,2.09
2016-11-28T01:40:55.053Z,2.04
2016-11-28T01:41:54.952Z,2.01
2016-11-28T01:42:54.796Z,2
2016-11-28T01:43:54.960Z,1.92
2016-11-28T01:44:54.894Z,2.01
2016-11-28T01:45:55.216Z,1.93
2016-11-28T01:46:55.174Z,1.95
2016-11-28T01:47:54.832Z,1.83
2016-11-28T01:48:54.811Z,1.9
2016-11-28T01:49:54.855Z,1.88
2016-11-28T01:50:55.535Z,1.9
2016-11-28T01:51:55.133Z,1.72
2016-11-28T01:52:54.963Z,1.83
2016-11-28T01:53:55.798Z,1.86
2016-11-28T01:54:55.041Z,1.88
2016-11-28T01:55:55.355Z,1.82
2016-11-28T01:56:55.495Z,1.72
2016-11-28T01:57:54.964Z,1.7
2016-11-28T01:58:55.146Z,1.75
2016-11-28T01:59:55.515Z,1.7
2016-11-28T02:00:56.004Z,1.71
2016-11-28T02:01:55.677Z,1.65
2016-11-28T02:02:54.846Z,1.74
2016-11-28T02:03:54.804Z,1.65
2016-11-28T02:04:55.215Z,1.7
2016-11-28T02:05:55.116Z,1.56
2016-11-28T02:06:55.428Z,1.72
2016-11-28T02:07:55.216Z,1.57
2016-11-28T02:08:55.060Z,1.67
2016-11-28T02:09:54.984Z,1.7
2016-11-28T02:10:55.164Z,1.7
2016-11-28T02:11:55.574Z,1.52
2016-11-28T02:13:13.125Z,1.46
2016-11-28T02:14:12.692Z,1.5
2016-11-28T02:15:13.154Z,1.5
2016-11-28T02:16:13.072Z,1.5
2016-11-28T02:17:13.263Z,1.47
2016-11-28T02:18:12.439Z,1.56
2016-11-28T02:19:13.084Z,1.46
2016-11-28T02:20:12.725Z,1.42
2016-11-28T02:23:19.914Z,1.43
2016-11-28T02:23:32.396Z,1.39
2016-11-28T02:24:32.045Z,1.36
2016-11-28T02:25:32.397Z,1.44
2016-11-28T02:26:32.790Z,1.36
2016-11-28T02:27:32.519Z,1.38
2016-11-28T02:28:32.144Z,1.28
2016-11-28T02:29:32.235Z,1.42
2016-11-28T02:30:32.027Z,1.39
2016-11-28T02:31:31.762Z,1.31
2016-11-28T02:32:33.141Z,1.2
2016-11-28T02:33:32.306Z,1.28
2016-11-28T02:34:31.973Z,1.25
2016-11-28T02:35:32.025Z,1.24
2016-11-28T02:36:31.920Z,1.31
2016-11-28T02:37:32.353Z,1.29
2016-11-28T02:38:31.886Z,1.28
2016-11-28T02:39:32.514Z,1.24
2016-11-28T02:40:31.914Z,1.31
2016-11-28T02:41:32.337Z,1.24
2016-11-28T02:42:32.327Z,1.28
2016-11-28T02:43:32.319Z,1.24
2016-11-28T02:44:31.976Z,1.25
2016-11-28T02:45:31.941Z,1.18
2016-11-28T02:46:32.096Z,1.21
2016-11-28T02:47:32.242Z,1.29
2016-11-28T02:48:32.661Z,1.24
2016-11-28T02:49:32.423Z,1.17
2016-11-28T02:50:31.949Z,1.2
2016-11-28T02:51:32.630Z,1.07
2016-11-28T02:52:32.971Z,1.18
2016-11-28T02:53:32.453Z,1.18
2016-11-28T02:54:32.468Z,1.16
2016-11-28T02:55:32.494Z,1.07
2016-11-28T02:56:31.940Z,1.2
2016-11-28T02:57:32.316Z,1.14
2016-11-28T02:58:32.675Z,1.1
2016-11-28T02:59:32.099Z,1.04
2016-11-28T03:00:32.138Z,1.2
2016-11-28T03:01:32.166Z,1.02
2016-11-28T03:02:32.006Z,1.08
2016-11-28T03:03:32.096Z,1.24
2016-11-28T03:04:31.874Z,1.17
2016-11-28T03:05:32.270Z,1.08
2016-11-28T03:06:32.164Z,1.1
2016-11-28T03:07:32.116Z,1.08
2016-11-28T03:08:32.893Z,1.18
2016-11-28T03:09:32.418Z,1.14
2016-11-28T03:10:31.915Z,1.04
2016-11-28T03:11:32.247Z,1.08
2016-11-28T03:12:32.083Z,1
2016-11-28T03:13:32.259Z,1.02
2016-11-28T03:14:32.650Z,1.02
2016-11-28T03:15:32.440Z,1.06
2016-11-28T03:16:32.068Z,1.04
2016-11-28T03:17:32.084Z,0.92
2016-11-28T03:18:32.250Z,1.1
2016-11-28T03:19:32.543Z,1.04
2016-11-28T03:20:32.184Z,1.08
2016-11-28T03:21:32.196Z,1.04
2016-11-28T03:22:31.975Z,0.93
2016-11-28T03:23:32.288Z,1.08
2016-11-28T03:24:31.782Z,1
2016-11-28T03:25:31.958Z,1.06
2016-11-28T03:26:32.219Z,1.04
2016-11-28T03:27:32.213Z,0.92
2016-11-28T03:28:32.015Z,0.99
2016-11-28T03:29:31.992Z,1.11
2016-11-28T03:30:32.164Z,0.99
2016-11-28T03:31:32.334Z,0.98
2016-11-28T03:32:32.207Z,0.98
2016-11-28T03:33:31.994Z,0.99
2016-11-28T03:34:31.816Z,1
2016-11-28T03:35:32.153Z,0.95
2016-11-28T03:36:31.974Z,0.89
2016-11-28T03:37:32.196Z,1
2016-11-28T03:38:31.748Z,1.02
2016-11-28T03:39:32.319Z,0.99
2016-11-28T03:40:31.937Z,0.92
2016-11-28T03:41:32.237Z,0.92
2016-11-28T03:42:32.052Z,0.96
2016-11-28T03:43:32.424Z,0.84
2016-11-28T03:44:32.328Z,0.8
2016-11-28T03:45:32.273Z,0.8
2016-11-28T03:46:32.636Z,0.95
2016-11-28T03:47:32.090Z,0.82
2016-11-28T03:48:32.091Z,0.9
2016-11-28T03:49:32.356Z,0.89
2016-11-28T03:50:32.599Z,0.88
2016-11-28T03:51:32.285Z,0.89
2016-11-28T03:52:32.118Z,0.84
2016-11-28T03:53:32.243Z,0.92
2016-11-28T03:54:32.429Z,0.89
2016-11-28T03:55:32.756Z,0.86
2016-11-28T03:56:32.543Z,0.89
2016-11-28T03:57:32.436Z,0.88
2016-11-28T03:58:32.042Z,0.81
2016-11-28T03:59:32.477Z,0.9
2016-11-28T04:00:32.194Z,0.9
2016-11-28T04:01:32.375Z,0.9
2016-11-28T04:02:32.791Z,0.86
2016-11-28T04:03:32.690Z,0.88
2016-11-28T04:04:32.901Z,0.77
2016-11-28T04:05:32.405Z,0.81
2016-11-28T04:06:32.860Z,0.84
2016-11-28T04:07:32.535Z,0.75
2016-11-28T04:08:33.463Z,0.89
2016-11-28T04:09:31.976Z,0.89
2016-11-28T04:10:32.674Z,0.75
2016-11-28T04:11:32.592Z,0.89
2016-11-28T04:12:32.098Z,0.77
2016-11-28T04:13:32.525Z,0.72
2016-11-28T04:14:31.913Z,0.75
2016-11-28T04:15:32.367Z,0.74
2016-11-28T04:16:32.004Z,0.81
2016-11-28T04:17:32.143Z,0.81
2016-11-28T04:18:32.201Z,0.64
2016-11-28T04:19:32.182Z,0.72
2016-11-28T04:20:32.067Z,0.7
2016-11-28T04:21:32.175Z,0.71
2016-11-28T04:22:32.663Z,0.67
2016-11-28T04:23:32.215Z,0.62
2016-11-28T04:24:32.085Z,0.63
2016-11-28T04:25:32.702Z,0.59
2016-11-28T04:26:32.302Z,0.67
2016-11-28T04:27:33.023Z,0.6
2016-11-28T04:28:34.674Z,0.6
2016-11-28T04:29:32.330Z,0.52
2016-11-28T04:30:32.585Z,0.57
2016-11-28T04:31:33.049Z,0.56
2016-11-28T04:32:32.733Z,0.51
2016-11-28T04:33:33.119Z,0.41
2016-11-28T04:34:33.321Z,0.48
2016-11-28T04:35:33.899Z,0.49
2016-11-28T04:36:33.994Z,0.45
2016-11-28T04:37:33.492Z,0.38
2016-11-28T04:38:33.600Z,0.37
2016-11-28T04:39:34.255Z,0.45
2016-11-28T04:40:35.496Z,0.34
2016-11-28T04:41:33.314Z,0.38
2016-11-28T04:42:33.597Z,0.31
2016-11-28T04:43:34.173Z,0.33
2016-11-28T04:44:33.562Z,0.43
2016-11-28T04:45:33.761Z,0.43
2016-11-28T04:46:33.398Z,0.34
2016-11-28T04:47:33.551Z,0.45
2016-11-28T04:48:33.732Z,0.45
2016-11-28T04:49:34.309Z,0.45
2016-11-28T04:50:33.671Z,0.48
2016-11-28T04:51:33.771Z,0.44
2016-11-28T04:52:33.487Z,0.52
2016-11-28T04:53:33.141Z,0.51
2016-11-28T04:54:33.871Z,0.53
2016-11-28T04:55:33.396Z,0.49
2016-11-28T04:56:33.149Z,0.49
2016-11-28T04:57:33.523Z,0.57
2016-11-28T04:58:33.022Z,0.57
2016-11-28T04:59:32.825Z,0.53
2016-11-28T05:00:32.707Z,0.52
2016-11-28T05:01:32.775Z,0.49
2016-11-28T05:02:33.663Z,0.56
2016-11-28T05:03:33.277Z,0.48
2016-11-28T05:04:33.699Z,0.59
2016-11-28T05:05:33.736Z,0.6
2016-11-28T05:06:32.985Z,0.62
2016-11-28T05:07:32.964Z,0.57
2016-11-28T05:08:33.605Z,0.62
2016-11-28T05:09:34.113Z,0.59
2016-11-28T05:10:33.034Z,0.6
2016-11-28T05:11:32.749Z,0.63
2016-11-28T05:12:32.838Z,0.6
2016-11-28T05:13:33.857Z,0.64
2016-11-28T05:14:32.613Z,0.59
2016-11-28T05:15:33.204Z,0.62
2016-11-28T05:16:32.656Z,0.62
2016-11-28T05:17:33.474Z,0.7
2016-11-28T05:18:32.876Z,0.71
2016-11-28T05:19:32.881Z,0.62
2016-11-28T05:20:32.861Z,0.63
2016-11-28T05:21:33.162Z,0.7
2016-11-28T05:22:32.718Z,0.67
2016-11-28T05:23:33.486Z,0.68
2016-11-28T05:24:33.177Z,0.67
2016-11-28T05:25:32.083Z,0.74
2016-11-28T05:26:32.634Z,0.7
2016-11-28T05:27:32.379Z,0.67
2016-11-28T05:28:32.140Z,0.64
2016-11-28T05:29:32.232Z,0.71
2016-11-28T05:30:32.779Z,0.67
2016-11-28T05:31:32.236Z,0.64
2016-11-28T05:32:32.331Z,0.6
2016-11-28T05:33:32.511Z,0.64
2016-11-28T05:34:32.706Z,0.63
2016-11-28T05:35:32.783Z,0.64
2016-11-28T05:36:32.422Z,0.63
2016-11-28T05:37:32.583Z,0.63
2016-11-28T05:38:32.739Z,0.59
2016-11-28T05:39:32.958Z,0.67
2016-11-28T05:40:32.305Z,0.72
2016-11-28T05:41:32.453Z,0.64
2016-11-28T05:42:32.308Z,0.71
2016-11-28T05:43:32.956Z,0.7
2016-11-28T05:44:32.297Z,0.63
2016-11-28T05:45:33.283Z,0.59
2016-11-28T05:46:33.437Z,0.59
2016-11-28T05:47:32.673Z,0.67
2016-11-28T05:48:32.828Z,0.62
2016-11-28T05:49:32.453Z,0.7
2016-11-28T05:50:32.875Z,0.6
2016-11-28T05:51:32.890Z,0.52
2016-11-28T05:52:32.802Z,0.56
2016-11-28T05:53:32.521Z,0.52
2016-11-28T05:54:32.661Z,0.56
2016-11-28T05:55:32.673Z,0.56
2016-11-28T05:56:32.737Z,0.67
2016-11-28T05:57:33.464Z,0.62
2016-11-28T05:58:33.749Z,0.53
2016-11-28T05:59:33.223Z,0.52
2016-11-28T06:00:32.895Z,0.56
2016-11-28T06:01:33.246Z,0.49
2016-11-28T06:02:34.139Z,0.56
2016-11-28T06:03:33.062Z,0.52
2016-11-28T06:04:33.567Z,0.48
2016-11-28T06:05:33.544Z,0.48
2016-11-28T06:06:32.891Z,0.49
2016-11-28T06:07:32.376Z,0.49
2016-11-28T06:08:33.059Z,0.45
2016-11-28T06:09:33.174Z,0.43
2016-11-28T06:10:32.181Z,0.48
2016-11-28T06:11:33.093Z,0.48
2016-11-28T06:12:32.929Z,0.44
2016-11-28T06:13:33.253Z,0.51
2016-11-28T06:14:32.872Z,0.44
2016-11-28T06:15:33.589Z,0.45
2016-11-28T06:16:33.415Z,0.52
2016-11-28T06:17:32.913Z,0.45
2016-11-28T06:18:32.589Z,0.48
2016-11-28T06:19:32.774Z,0.37
2016-11-28T06:20:32.893Z,0.49
2016-11-28T06:21:32.638Z,0.45
2016-11-28T06:22:32.822Z,0.44
2016-11-28T06:23:32.580Z,0.43
2016-11-28T06:24:32.896Z,0.41
2016-11-28T06:25:33.039Z,0.43
2016-11-28T06:26:33.113Z,0.49
2016-11-28T06:27:33.237Z,0.45
2016-11-28T06:28:32.859Z,0.45
2016-11-28T06:29:33.505Z,0.38
2016-11-28T06:30:33.917Z,0.41
2016-11-28T06:31:33.206Z,0.4
2016-11-28T06:32:33.389Z,0.34
2016-11-28T06:33:33.229Z,0.45
2016-11-28T06:34:33.004Z,0.34
2016-11-28T06:35:32.785Z,0.38
2016-11-28T06:36:33.348Z,0.35
2016-11-28T06:37:33.576Z,0.43
2016-11-28T06:38:32.942Z,0.38
2016-11-28T06:39:32.954Z,0.37
2016-11-28T06:40:33.895Z,0.4
2016-11-28T06:41:34.154Z,0.4
2016-11-28T06:42:32.529Z,0.41
2016-11-28T06:43:32.913Z,0.35
2016-11-28T06:44:32.715Z,0.35
2016-11-28T06:45:32.730Z,0.37
2016-11-28T06:46:32.845Z,0.35
2016-11-28T06:47:32.474Z,0.35
2016-11-28T06:48:32.549Z,0.31
2016-11-28T06:49:33.480Z,0.38
2016-11-28T06:50:33.446Z,0.38
2016-11-28T06:51:33.181Z,0.4
2016-11-28T06:52:34.087Z,0.31
2016-11-28T06:53:32.964Z,0.44
2016-11-28T06:54:34.093Z,0.43
2016-11-28T06:55:32.708Z,0.31
2016-11-28T06:56:32.394Z,0.43
2016-11-28T06:57:33.348Z,0.44
2016-11-28T06:58:32.477Z,0.35
2016-11-28T06:59:32.866Z,0.43
2016-11-28T07:00:33.057Z,0.34
2016-11-28T07:01:32.716Z,0.41
2016-11-28T07:02:34.331Z,0.4
2016-11-28T07:03:33.432Z,0.34
2016-11-28T07:04:33.262Z,0.4
2016-11-28T07:05:33.175Z,0.31
2016-11-28T07:06:33.219Z,0.38
2016-11-28T07:07:33.597Z,0.31
2016-11-28T07:08:33.684Z,0.22
2016-11-28T07:09:33.546Z,0.22
2016-11-28T07:10:33.119Z,0.23
2016-11-28T07:11:33.535Z,0.22
2016-11-28T07:12:34.829Z,0.31
2016-11-28T07:13:33.892Z,0.25
2016-11-28T07:14:32.975Z,0.23
2016-11-28T07:15:32.771Z,0.26
2016-11-28T07:16:33.626Z,0.25
2016-11-28T07:17:33.201Z,0.26
2016-11-28T07:18:33.090Z,0.22
2016-11-28T07:19:32.736Z,0.22
2016-11-28T07:20:33.024Z,0.23
2016-11-28T07:21:32.812Z,0.23
2016-11-28T07:22:32.862Z,0.15
2016-11-28T07:23:33.439Z,0.15
2016-11-28T07:24:33.751Z,0.13
2016-11-28T07:25:33.753Z,0.08
2016-11-28T07:26:33.204Z,0.15
2016-11-28T07:27:33.562Z,0.13
2016-11-28T07:28:33.031Z,0.13
2016-11-28T07:29:32.832Z,0.08
2016-11-28T07:30:34.479Z,0.17
2016-11-28T07:31:34.347Z,0.08
2016-11-28T07:32:34.553Z,0.13
2016-11-28T07:33:33.347Z,0.23
2016-11-28T07:34:33.729Z,0.1
2016-11-28T07:35:32.533Z,0.12
2016-11-28T07:36:33.144Z,0.08
2016-11-28T07:37:33.233Z,0.01
2016-11-28T07:38:33.221Z,0.07
2016-11-28T07:39:33.272Z,0.02
2016-11-28T07:40:32.939Z,0.01
2016-11-28T07:41:32.947Z,0.1
2016-11-28T07:42:32.946Z,0.01
2016-11-28T07:43:32.932Z,-0.01
2016-11-28T07:44:33.326Z,0.07
2016-11-28T07:45:33.837Z,-0.03
2016-11-28T07:46:33.135Z,-0.01
2016-11-28T07:47:33.061Z,-0.01
2016-11-28T07:48:33.551Z,0.04
2016-11-28T07:49:33.440Z,0.04
2016-11-28T07:50:33.086Z,0.02
2016-11-28T07:51:32.975Z,0.01
2016-11-28T07:52:32.936Z,-0.03
2016-11-28T07:53:33.515Z,0.01
2016-11-28T07:54:33.170Z,0.05
2016-11-28T07:55:33.260Z,-0.03
2016-11-28T07:56:32.795Z,-0.02
2016-11-28T07:57:32.823Z,0.02
2016-11-28T07:58:34.213Z,0.05
2016-11-28T07:59:33.531Z,0.07
2016-11-28T08:00:33.062Z,0.15
2016-11-28T08:01:33.183Z,0.1
2016-11-28T08:02:33.640Z,0.07
2016-11-28T08:03:34.078Z,0.08
2016-11-28T08:04:34.212Z,0.08
2016-11-28T08:05:34.771Z,0.12
2016-11-28T08:06:33.770Z,0.1
2016-11-28T08:07:32.814Z,0.19
2016-11-28T08:08:32.464Z,0.1
2016-11-28T08:09:32.963Z,0.26
2016-11-28T08:10:33.068Z,0.22
2016-11-28T08:11:33.135Z,0.25
2016-11-28T08:12:33.351Z,0.15
2016-11-28T08:13:32.748Z,0.23
2016-11-28T08:14:33.531Z,0.26
2016-11-28T08:15:33.237Z,0.15
2016-11-28T08:16:33.425Z,0.15
2016-11-28T08:17:33.489Z,0.28
2016-11-28T08:18:33.290Z,0.23
2016-11-28T08:19:33.192Z,0.26
2016-11-28T08:20:33.414Z,0.25
2016-11-28T08:21:32.684Z,0.3
2016-11-28T08:22:32.783Z,0.31
2016-11-28T08:23:32.718Z,0.26
2016-11-28T08:24:33.073Z,0.43
2016-11-28T08:25:32.536Z,0.25
2016-11-28T08:26:33.053Z,0.26
2016-11-28T08:27:32.845Z,0.35
2016-11-28T08:28:32.804Z,0.31
2016-11-28T08:29:32.579Z,0.35
2016-11-28T08:30:33.293Z,0.4
2016-11-28T08:31:33.284Z,0.49
2016-11-28T08:32:32.875Z,0.45
2016-11-28T08:33:33.152Z,0.49
2016-11-28T08:34:33.478Z,0.51
2016-11-28T08:35:32.815Z,0.56
2016-11-28T08:36:33.119Z,0.6
2016-11-28T08:37:32.895Z,0.68
2016-11-28T08:38:32.914Z,0.63
2016-11-28T08:39:33.567Z,0.71
2016-11-28T08:40:33.033Z,0.62
2016-11-28T08:41:32.921Z,0.8
2016-11-28T08:42:33.119Z,0.81
2016-11-28T08:43:33.063Z,0.82
2016-11-28T08:44:33.733Z,0.78
2016-11-28T08:45:35.138Z,0.84
2016-11-28T08:46:33.553Z,0.92
2016-11-28T08:47:34.366Z,0.89
2016-11-28T08:48:33.761Z,1
2016-11-28T08:49:34.952Z,0.98
2016-11-28T08:50:33.090Z,1
2016-11-28T08:51:32.805Z,1.08
2016-11-28T08:52:34.388Z,1.24
2016-11-28T08:53:33.665Z,1.2
2016-11-28T08:54:33.876Z,1.28
2016-11-28T08:55:35.577Z,1.39
2016-11-28T08:56:34.212Z,1.49
2016-11-28T08:57:34.790Z,1.42
2016-11-28T08:58:34.135Z,1.56
2016-11-28T08:59:33.665Z,1.52
2016-11-28T09:00:33.516Z,1.68
2016-11-28T09:01:34.530Z,1.63
2016-11-28T09:02:34.161Z,1.63
2016-11-28T09:03:33.725Z,1.88
2016-11-28T09:04:33.475Z,1.88
2016-11-28T09:05:33.033Z,1.9
2016-11-28T09:06:33.354Z,1.9
2016-11-28T09:07:33.375Z,2.08
2016-11-28T09:08:32.928Z,1.95
2016-11-28T09:09:32.867Z,2.01
2016-11-28T09:10:32.805Z,2.05
2016-11-28T09:11:33.282Z,2.07
2016-11-28T09:12:33.228Z,2.18
2016-11-28T09:13:32.650Z,2.14
2016-11-28T09:14:32.601Z,2.18
2016-11-28T09:15:32.890Z,2.18
2016-11-28T09:16:32.636Z,2.29
2016-11-28T09:17:33.024Z,2.33
2016-11-28T09:18:33.679Z,2.44
2016-11-28T09:19:33.387Z,2.51
2016-11-28T09:20:33.612Z,2.71
2016-11-28T09:21:33.468Z,2.83
2016-11-28T09:22:33.989Z,2.83
2016-11-28T09:23:33.678Z,2.84
2016-11-28T09:24:35.184Z,2.99
2016-11-28T09:25:33.562Z,2.95
2016-11-28T09:26:33.185Z,3.08
2016-11-28T09:27:32.794Z,3.12
2016-11-28T09:28:32.913Z,3.19
2016-11-28T09:29:32.949Z,3.35
2016-11-28T09:30:32.730Z,3.45
2016-11-28T09:31:33.460Z,3.62
2016-11-28T09:32:32.611Z,3.95
2016-11-28T09:33:32.781Z,4.35
2016-11-28T09:34:33.271Z,4.64
2016-11-28T09:35:33.332Z,4.84
2016-11-28T09:36:34.210Z,4.97
2016-11-28T09:37:33.077Z,5.42
2016-11-28T09:38:32.696Z,5.47
2016-11-28T09:39:33.260Z,5.67
2016-11-28T09:40:33.675Z,5.88
2016-11-28T09:41:32.874Z,5.9
2016-11-28T09:42:32.822Z,5.85
2016-11-28T09:43:32.597Z,5.87
2016-11-28T09:44:32.492Z,6.21
2016-11-28T09:45:32.771Z,6.24
2016-11-28T09:46:32.409Z,6.33
2016-11-28T09:47:32.788Z,6.48
2016-11-28T09:48:33.805Z,6.39
2016-11-28T09:49:33.316Z,6.48
2016-11-28T09:50:33.361Z,6.53
2016-11-28T09:51:34.747Z,6.75
2016-11-28T09:52:33.178Z,6.73
2016-11-28T09:53:33.462Z,6.9
2016-11-28T09:54:33.797Z,6.9
2016-11-28T09:55:32.887Z,6.9
2016-11-28T09:56:32.943Z,7.32
2016-11-28T09:57:33.307Z,7.12
2016-11-28T09:58:33.283Z,7.18
2016-11-28T09:59:32.944Z,7.37
2016-11-28T10:00:34.006Z,7.15
2016-11-28T10:01:33.440Z,6.89
2016-11-28T10:02:33.219Z,6.68
2016-11-28T10:03:33.196Z,6.25
2016-11-28T10:04:33.263Z,6.03
2016-11-28T10:05:33.619Z,5.83
2016-11-28T10:06:33.474Z,5.62
2016-11-28T10:07:33.224Z,5.48
2016-11-28T10:08:34.186Z,5.44
2016-11-28T10:09:34.249Z,5.6
2016-11-28T10:10:34.146Z,5.75
2016-11-28T10:11:33.579Z,6.01
2016-11-28T10:12:33.738Z,6.06
2016-11-28T10:13:33.819Z,6.1
2016-11-28T10:14:33.198Z,6.03
2016-11-28T10:15:33.589Z,5.73
2016-11-28T10:16:34.926Z,5.4
2016-11-28T10:17:33.034Z,5.19
2016-11-28T10:18:33.547Z,5.09
2016-11-28T10:19:33.046Z,5.12
2016-11-28T10:20:33.457Z,4.99
2016-11-28T10:21:33.639Z,4.97
2016-11-28T10:22:33.349Z,4.96
2016-11-28T10:23:33.615Z,4.84
2016-11-28T10:24:34.289Z,4.83
2016-11-28T10:25:33.317Z,4.67
2016-11-28T10:26:33.488Z,4.64
2016-11-28T10:27:33.233Z,4.71
2016-11-28T10:28:33.232Z,4.59
2016-11-28T10:29:33.587Z,4.59
2016-11-28T10:30:32.718Z,4.56
2016-11-28T10:31:32.913Z,4.53
2016-11-28T10:32:33.972Z,4.51
2016-11-28T10:33:33.967Z,4.35
2016-11-28T10:34:33.263Z,4.35
2016-11-28T10:35:33.788Z,4.36
2016-11-28T10:36:32.931Z,4.34
2016-11-28T10:37:32.988Z,4.34
2016-11-28T10:38:33.930Z,4.47
2016-11-28T10:39:34.812Z,4.51
2016-11-28T10:40:33.969Z,4.38
2016-11-28T10:41:34.701Z,4.35
2016-11-28T10:42:33.778Z,4.36
2016-11-28T10:43:32.968Z,4.46
2016-11-28T10:44:33.231Z,4.32
2016-11-28T10:45:33.024Z,4.38
2016-11-28T10:46:32.961Z,4.39
2016-11-28T10:47:33.047Z,4.29
2016-11-28T10:48:33.263Z,4.26
2016-11-28T10:49:32.952Z,4.43
2016-11-28T10:50:33.089Z,4.39
2016-11-28T10:51:33.003Z,4.42
2016-11-28T10:52:33.107Z,4.36
2016-11-28T10:53:33.100Z,4.43
2016-11-28T10:54:33.426Z,4.38
2016-11-28T10:55:33.071Z,4.34
2016-11-28T10:56:32.993Z,4.43
2016-11-28T10:57:33.564Z,4.47
2016-11-28T10:58:33.381Z,4.5
2016-11-28T10:59:33.628Z,4.61
2016-11-28T11:00:33.334Z,4.56
2016-11-28T11:01:33.640Z,4.68
2016-11-28T11:02:33.422Z,4.86
2016-11-28T11:03:33.534Z,4.8
2016-11-28T11:04:33.492Z,5.08
2016-11-28T11:05:33.067Z,5.2
2016-11-28T11:06:33.737Z,5.38
2016-11-28T11:07:33.254Z,5.74
2016-11-28T11:08:33.651Z,5.87
2016-11-28T11:09:33.780Z,6.01
2016-11-28T11:10:33.679Z,6.35
2016-11-28T11:11:33.073Z,6.48
2016-11-28T11:12:33.817Z,6.76
2016-11-28T11:13:33.329Z,6.96
2016-11-28T11:14:33.389Z,7.01
2016-11-28T11:15:33.178Z,7.11
2016-11-28T11:16:33.505Z,7.18
2016-11-28T11:17:33.204Z,7.15
2016-11-28T11:18:33.703Z,7.18
2016-11-28T11:19:33.708Z,7.34
2016-11-28T11:20:33.482Z,7.3
2016-11-28T11:21:33.222Z,7.3
2016-11-28T11:22:33.620Z,7.34
2016-11-28T11:23:33.339Z,7.5
2016-11-28T11:24:33.576Z,7.5
2016-11-28T11:25:33.972Z,7.44
2016-11-28T11:26:33.299Z,7.32
2016-11-28T11:27:34.000Z,7.37
2016-11-28T11:28:33.258Z,7.45
2016-11-28T11:29:33.123Z,7.45
2016-11-28T11:30:33.381Z,7.37
2016-11-28T11:31:32.991Z,7.39
2016-11-28T11:32:33.421Z,7.58
2016-11-28T11:33:33.798Z,7.76
2016-11-28T11:34:33.575Z,7.88
2016-11-28T11:35:33.722Z,7.7
2016-11-28T11:36:33.813Z,7.7
2016-11-28T11:37:33.518Z,7.67
2016-11-28T11:38:33.719Z,7.58
2016-11-28T11:39:34.210Z,7.39
2016-11-28T11:40:33.192Z,7.6
2016-11-28T11:41:33.699Z,7.42
2016-11-28T11:42:33.614Z,7.41
2016-11-28T11:43:33.580Z,7.57
2016-11-28T11:44:33.636Z,7.54
2016-11-28T11:45:33.061Z,7.55
2016-11-28T11:46:33.284Z,7.71
2016-11-28T11:47:34.093Z,7.51
2016-11-28T11:48:33.152Z,7.73
2016-11-28T11:49:33.225Z,7.6
2016-11-28T11:50:33.570Z,7.88
2016-11-28T11:51:33.100Z,7.92
2016-11-28T11:52:33.493Z,8.2
2016-11-28T11:53:32.975Z,8.09
2016-11-28T11:54:33.324Z,8.14
2016-11-28T11:55:33.393Z,8.25
2016-11-28T11:56:33.384Z,8.43
2016-11-28T11:57:33.594Z,8.47
2016-11-28T11:58:33.741Z,8.45
2016-11-28T11:59:33.521Z,8.43
2016-11-28T12:00:33.320Z,8.43
2016-11-28T12:01:33.667Z,8.47
2016-11-28T12:02:33.433Z,8.5
2016-11-28T12:03:33.803Z,8.57
2016-11-28T12:04:33.582Z,8.43
2016-11-28T12:05:33.184Z,8.39
2016-11-28T12:06:33.649Z,8.46
2016-11-28T12:07:33.578Z,8.2
2016-11-28T12:08:33.634Z,8.22
2016-11-28T12:09:33.489Z,8.24
2016-11-28T12:10:33.334Z,8.14
2016-11-28T12:11:34.347Z,7.91
2016-11-28T12:12:33.584Z,7.95
2016-11-28T12:13:33.684Z,8.07
2016-11-28T12:14:33.413Z,7.92
2016-11-28T12:19:04.230Z,7.79
2016-11-28T12:20:04.164Z,7.74
2016-11-28T12:21:04.273Z,7.67
2016-11-28T12:22:04.078Z,7.73
2016-11-28T12:23:04.108Z,7.63
2016-11-28T12:24:04.054Z,7.91
2016-11-28T12:25:04.421Z,7.81
2016-11-28T12:26:04.888Z,7.82
2016-11-28T12:27:04.390Z,7.81
2016-11-28T12:28:04.968Z,7.85
2016-11-28T12:29:05.748Z,8.04
2016-11-28T12:30:04.737Z,8.07
2016-11-28T12:31:04.468Z,8.1
2016-11-28T12:32:04.165Z,8.18
2016-11-28T12:33:04.489Z,8.2
2016-11-28T12:34:04.373Z,8.03
2016-11-28T12:35:03.971Z,8.25
2016-11-28T12:36:04.274Z,8.25
2016-11-28T12:37:04.505Z,8.17
2016-11-28T12:38:04.094Z,8.22
2016-11-28T12:39:04.673Z,8.2
2016-11-28T12:40:04.458Z,8.1
2016-11-28T12:41:04.593Z,8.17
2016-11-28T12:42:04.579Z,8.1
2016-11-28T12:43:04.419Z,8.1
2016-11-28T12:44:05.070Z,8.18
2016-11-28T12:45:05.195Z,8.06
2016-11-28T12:46:04.732Z,7.99
2016-11-28T12:47:04.575Z,8.12
2016-11-28T12:48:04.454Z,8.1
2016-11-28T12:49:04.753Z,8.04
2016-11-28T12:50:04.576Z,7.92
2016-11-28T12:51:04.630Z,7.71
2016-11-28T12:52:04.767Z,7.79
2016-11-28T12:53:04.636Z,7.73
2016-11-28T12:54:04.775Z,7.96
2016-11-28T12:55:04.485Z,7.96
2016-11-28T12:56:04.443Z,7.91
2016-11-28T12:57:04.769Z,8.06
2016-11-28T12:58:05.112Z,8
2016-11-28T12:59:04.423Z,8.1
2016-11-28T13:00:04.428Z,8.06
2016-11-28T13:01:04.402Z,8.07
2016-11-28T13:02:04.537Z,7.96
2016-11-28T13:03:04.843Z,8.04
2016-11-28T13:04:04.287Z,7.96
2016-11-28T13:05:04.779Z,8.07
2016-11-28T13:06:04.214Z,8.04
2016-11-28T13:07:04.640Z,8.09
2016-11-28T13:08:05.205Z,8.17
2016-11-28T13:09:04.817Z,8.18
2016-11-28T13:10:04.968Z,8.03
2016-11-28T13:11:05.328Z,8.04
2016-11-28T13:12:04.175Z,8.03
2016-11-28T13:13:04.591Z,8.12
2016-11-28T13:14:04.157Z,8.07
2016-11-28T13:15:04.322Z,7.88
2016-11-28T13:16:04.738Z,7.91
2016-11-28T13:17:03.923Z,7.81
2016-11-28T13:18:04.306Z,7.86
2016-11-28T13:19:04.688Z,7.86
2016-11-28T13:20:04.381Z,7.82
2016-11-28T13:21:04.265Z,7.67
2016-11-28T13:22:04.524Z,7.58
2016-11-28T13:23:04.251Z,7.57
2016-11-28T13:24:04.268Z,7.51
2016-11-28T13:25:03.992Z,7.37
2016-11-28T13:26:04.117Z,7.39
2016-11-28T13:27:04.287Z,7.42
2016-11-28T13:28:03.869Z,7.39